Estación Meteorológica Peña el Pijo (Robertgarden) [ 09/24/17 17:53:02 CEST ]

Fecha Hora Presion(HPa) Temp (°C) Humedad % Rocio (°C) Viento ( m/s) Direccion Lluvia 1Hora(mm) Lluvia 24H(mm) LLuvia Total(mm)
2017-Aug-20 01:01:08 1014.800 18.7 65 12.0         1439.00
2017-Aug-20 02:01:55 1014.800 17.0 70 11.5         1439.00
2017-Aug-20 03:01:43 1014.500 15.9 74 11.3         1439.00
2017-Aug-20 04:01:42 1014.300 14.9 77 10.9         1439.00
2017-Aug-20 05:01:34 1014.200 14.1 79 10.5         1439.00
2017-Aug-20 06:01:09 1014.500 13.4 82 10.4         1439.00
2017-Aug-20 07:01:46 1014.500 12.8 83 9.9         1439.00
2017-Aug-20 08:01:43 1014.900 12.4 84 9.8         1439.00
2017-Aug-20 09:02:03 1015.500 17.3 84 14.6         1439.00
2017-Aug-20 10:01:58 1015.200 22.4 68 16.2         1439.00
2017-Aug-20 11:02:02 1015.700 26.9 49 15.3 2.4 S     1439.00
2017-Aug-20 12:02:01 1015.700 29.8 41 15.2         1439.00
2017-Aug-20 13:01:47 1015.200 33.4 34 15.3         1439.00
2017-Aug-20 14:01:48 1014.900 34.1 33 15.4         1439.00
2017-Aug-20 15:01:47 1014.700 34.7 31 15.1 0.8 SSW     1439.00
2017-Aug-20 16:01:56 1014.200 36.2 29 15.3         1439.00
2017-Aug-20 17:01:52 1013.800 34.8 31 15.2         1439.00
2017-Aug-20 18:01:41 1013.400 33.3 34 15.2         1439.00
2017-Aug-20 19:01:33 1013.300 31.4 37 14.9         1439.00
2017-Aug-20 20:01:55 1013.300 28.8 43 15.0 2.0 SSW     1439.00
2017-Aug-20 21:01:34 1013.600 26.4 49 14.8         1439.00
2017-Aug-20 22:01:51 1014.500 24.1 58 15.3         1439.00
2017-Aug-20 23:01:52 1015.100 21.8 66 15.1         1439.00

Temperatura Máxima:36°    Temperatura Mínima:12°
Presión Máxima:1015.700 Hpa    Presión Mínima:1013.300 Hpa


Volver